sensor_id;sensor_type;location;lat;lon;timestamp;temperature;humidity
71175;DHT22;58876;51.994;4.472;2023-04-15T00:00:13;11.80;55.98
71175;DHT22;58876;51.994;4.472;2023-04-15T00:02:40;11.77;56.05
71175;DHT22;58876;51.994;4.472;2023-04-15T00:05:06;11.77;55.90
71175;DHT22;58876;51.994;4.472;2023-04-15T00:07:32;11.76;56.12
71175;DHT22;58876;51.994;4.472;2023-04-15T00:09:57;11.77;55.87
71175;DHT22;58876;51.994;4.472;2023-04-15T00:12:24;11.73;55.79
71175;DHT22;58876;51.994;4.472;2023-04-15T00:14:50;11.77;55.69
71175;DHT22;58876;51.994;4.472;2023-04-15T00:17:16;11.74;55.47
71175;DHT22;58876;51.994;4.472;2023-04-15T00:19:42;11.73;55.41
71175;DHT22;58876;51.994;4.472;2023-04-15T00:22:09;11.74;55.64
71175;DHT22;58876;51.994;4.472;2023-04-15T00:24:34;11.71;55.56
71175;DHT22;58876;51.994;4.472;2023-04-15T00:26:59;11.71;56.16
71175;DHT22;58876;51.994;4.472;2023-04-15T00:29:25;11.65;56.06
71175;DHT22;58876;51.994;4.472;2023-04-15T00:31:50;11.65;56.26
71175;DHT22;58876;51.994;4.472;2023-04-15T00:34:16;11.65;56.27
71175;DHT22;58876;51.994;4.472;2023-04-15T00:36:42;11.65;56.37
71175;DHT22;58876;51.994;4.472;2023-04-15T00:39:08;11.63;56.65
71175;DHT22;58876;51.994;4.472;2023-04-15T00:41:33;11.62;56.49
71175;DHT22;58876;51.994;4.472;2023-04-15T00:44:00;11.60;56.39
71175;DHT22;58876;51.994;4.472;2023-04-15T00:46:28;11.59;56.26
71175;DHT22;58876;51.994;4.472;2023-04-15T00:48:55;11.55;56.32
71175;DHT22;58876;51.994;4.472;2023-04-15T00:51:20;11.50;56.20
71175;DHT22;58876;51.994;4.472;2023-04-15T00:53:46;11.50;55.89
71175;DHT22;58876;51.994;4.472;2023-04-15T00:56:12;11.46;55.83
71175;DHT22;58876;51.994;4.472;2023-04-15T00:58:38;11.42;56.00
71175;DHT22;58876;51.994;4.472;2023-04-15T01:01:04;11.38;56.11
71175;DHT22;58876;51.994;4.472;2023-04-15T01:03:29;11.29;56.24
71175;DHT22;58876;51.994;4.472;2023-04-15T01:05:55;11.22;56.65
71175;DHT22;58876;51.994;4.472;2023-04-15T01:08:27;11.19;56.64
71175;DHT22;58876;51.994;4.472;2023-04-15T01:10:55;11.11;56.77
71175;DHT22;58876;51.994;4.472;2023-04-15T01:13:23;11.14;57.04
71175;DHT22;58876;51.994;4.472;2023-04-15T01:15:49;11.11;56.94
71175;DHT22;58876;51.994;4.472;2023-04-15T01:18:15;11.14;57.38
71175;DHT22;58876;51.994;4.472;2023-04-15T01:20:40;11.09;57.23
71175;DHT22;58876;51.994;4.472;2023-04-15T01:23:06;11.08;57.02
71175;DHT22;58876;51.994;4.472;2023-04-15T01:25:33;11.05;57.35
71175;DHT22;58876;51.994;4.472;2023-04-15T01:27:59;11.08;57.26
71175;DHT22;58876;51.994;4.472;2023-04-15T01:30:25;11.08;57.29
71175;DHT22;58876;51.994;4.472;2023-04-15T01:32:54;11.04;57.54
71175;DHT22;58876;51.994;4.472;2023-04-15T01:35:19;11.04;57.69
71175;DHT22;58876;51.994;4.472;2023-04-15T01:37:46;11.01;57.97
71175;DHT22;58876;51.994;4.472;2023-04-15T01:40:12;10.95;58.08
71175;DHT22;58876;51.994;4.472;2023-04-15T01:42:38;10.98;58.20
71175;DHT22;58876;51.994;4.472;2023-04-15T01:45:04;10.95;58.35
71175;DHT22;58876;51.994;4.472;2023-04-15T01:47:29;10.95;58.54
71175;DHT22;58876;51.994;4.472;2023-04-15T01:49:55;10.94;58.34
71175;DHT22;58876;51.994;4.472;2023-04-15T01:52:20;10.90;58.60
71175;DHT22;58876;51.994;4.472;2023-04-15T01:54:46;10.85;58.63
71175;DHT22;58876;51.994;4.472;2023-04-15T01:57:11;10.84;58.86
71175;DHT22;58876;51.994;4.472;2023-04-15T01:59:37;10.80;59.19
71175;DHT22;58876;51.994;4.472;2023-04-15T02:02:02;10.72;59.47
71175;DHT22;58876;51.994;4.472;2023-04-15T02:04:28;10.70;59.60
71175;DHT22;58876;51.994;4.472;2023-04-15T02:06:54;10.67;60.10
71175;DHT22;58876;51.994;4.472;2023-04-15T02:09:19;10.64;60.08
71175;DHT22;58876;51.994;4.472;2023-04-15T02:11:45;10.61;60.12
71175;DHT22;58876;51.994;4.472;2023-04-15T02:14:11;10.64;60.83
71175;DHT22;58876;51.994;4.472;2023-04-15T02:16:36;10.57;61.01
71175;DHT22;58876;51.994;4.472;2023-04-15T02:19:02;10.59;60.82
71175;DHT22;58876;51.994;4.472;2023-04-15T02:21:30;10.53;61.29
71175;DHT22;58876;51.994;4.472;2023-04-15T02:23:56;10.54;61.24
71175;DHT22;58876;51.994;4.472;2023-04-15T02:26:22;10.51;61.53
71175;DHT22;58876;51.994;4.472;2023-04-15T02:28:49;10.47;61.48
71175;DHT22;58876;51.994;4.472;2023-04-15T02:31:15;10.44;61.72
71175;DHT22;58876;51.994;4.472;2023-04-15T02:33:41;10.43;61.96
71175;DHT22;58876;51.994;4.472;2023-04-15T02:36:07;10.40;62.07
71175;DHT22;58876;51.994;4.472;2023-04-15T02:38:34;10.34;62.15
71175;DHT22;58876;51.994;4.472;2023-04-15T02:40:59;10.33;62.35
71175;DHT22;58876;51.994;4.472;2023-04-15T02:43:25;10.23;62.78
71175;DHT22;58876;51.994;4.472;2023-04-15T02:45:51;10.20;63.12
71175;DHT22;58876;51.994;4.472;2023-04-15T02:48:16;10.20;63.33
71175;DHT22;58876;51.994;4.472;2023-04-15T02:50:45;10.22;63.14
71175;DHT22;58876;51.994;4.472;2023-04-15T02:53:11;10.14;63.59
71175;DHT22;58876;51.994;4.472;2023-04-15T02:55:37;10.12;63.81
71175;DHT22;58876;51.994;4.472;2023-04-15T02:58:03;10.10;63.54
71175;DHT22;58876;51.994;4.472;2023-04-15T03:00:28;10.05;63.90
71175;DHT22;58876;51.994;4.472;2023-04-15T03:03:02;10.03;63.95
71175;DHT22;58876;51.994;4.472;2023-04-15T03:05:28;10.02;63.91
71175;DHT22;58876;51.994;4.472;2023-04-15T03:07:53;9.96;64.28
71175;DHT22;58876;51.994;4.472;2023-04-15T03:10:20;9.96;64.29
71175;DHT22;58876;51.994;4.472;2023-04-15T03:12:45;9.98;64.39
71175;DHT22;58876;51.994;4.472;2023-04-15T03:15:11;9.92;64.55
71175;DHT22;58876;51.994;4.472;2023-04-15T03:17:36;9.85;64.58
71175;DHT22;58876;51.994;4.472;2023-04-15T03:20:03;9.74;64.79
71175;DHT22;58876;51.994;4.472;2023-04-15T03:22:33;9.65;64.65
71175;DHT22;58876;51.994;4.472;2023-04-15T03:24:58;9.62;64.63
71175;DHT22;58876;51.994;4.472;2023-04-15T03:27:24;9.57;64.81
71175;DHT22;58876;51.994;4.472;2023-04-15T03:29:50;9.54;65.00
71175;DHT22;58876;51.994;4.472;2023-04-15T03:32:16;9.47;65.20
71175;DHT22;58876;51.994;4.472;2023-04-15T03:34:42;9.47;65.41
71175;DHT22;58876;51.994;4.472;2023-04-15T03:37:08;9.43;65.30
71175;DHT22;58876;51.994;4.472;2023-04-15T03:39:34;9.31;65.71
71175;DHT22;58876;51.994;4.472;2023-04-15T03:42:00;9.28;65.73
71175;DHT22;58876;51.994;4.472;2023-04-15T03:44:26;9.23;66.27
71175;DHT22;58876;51.994;4.472;2023-04-15T03:46:52;9.13;66.67
71175;DHT22;58876;51.994;4.472;2023-04-15T03:49:19;9.03;67.15
71175;DHT22;58876;51.994;4.472;2023-04-15T03:51:45;8.99;67.18
71175;DHT22;58876;51.994;4.472;2023-04-15T03:54:10;9.02;67.26
71175;DHT22;58876;51.994;4.472;2023-04-15T03:56:37;8.93;67.53
71175;DHT22;58876;51.994;4.472;2023-04-15T03:59:02;8.96;67.36
71175;DHT22;58876;51.994;4.472;2023-04-15T04:01:28;8.92;67.55
71175;DHT22;58876;51.994;4.472;2023-04-15T04:03:53;8.89;67.61
71175;DHT22;58876;51.994;4.472;2023-04-15T04:06:19;8.89;67.59
71175;DHT22;58876;51.994;4.472;2023-04-15T04:08:44;8.92;67.79
71175;DHT22;58876;51.994;4.472;2023-04-15T04:11:10;8.89;67.77
71175;DHT22;58876;51.994;4.472;2023-04-15T04:13:35;8.83;67.97
71175;DHT22;58876;51.994;4.472;2023-04-15T04:16:01;8.83;68.24
71175;DHT22;58876;51.994;4.472;2023-04-15T04:18:29;8.80;68.25
71175;DHT22;58876;51.994;4.472;2023-04-15T04:20:55;8.73;68.58
71175;DHT22;58876;51.994;4.472;2023-04-15T04:23:21;8.69;68.87
71175;DHT22;58876;51.994;4.472;2023-04-15T04:25:46;8.69;68.84
71175;DHT22;58876;51.994;4.472;2023-04-15T04:28:12;8.68;68.63
71175;DHT22;58876;51.994;4.472;2023-04-15T04:30:37;8.72;68.76
71175;DHT22;58876;51.994;4.472;2023-04-15T04:33:03;8.68;69.02
71175;DHT22;58876;51.994;4.472;2023-04-15T04:35:28;8.59;69.47
71175;DHT22;58876;51.994;4.472;2023-04-15T04:37:54;8.62;69.33
71175;DHT22;58876;51.994;4.472;2023-04-15T04:40:19;8.61;69.44
71175;DHT22;58876;51.994;4.472;2023-04-15T04:42:44;8.63;69.47
71175;DHT22;58876;51.994;4.472;2023-04-15T04:45:10;8.65;69.74
71175;DHT22;58876;51.994;4.472;2023-04-15T04:47:35;8.62;69.33
71175;DHT22;58876;51.994;4.472;2023-04-15T04:50:01;8.59;69.59
71175;DHT22;58876;51.994;4.472;2023-04-15T04:52:26;8.68;69.42
71175;DHT22;58876;51.994;4.472;2023-04-15T04:54:52;8.63;69.56
71175;DHT22;58876;51.994;4.472;2023-04-15T04:57:17;8.68;69.66
71175;DHT22;58876;51.994;4.472;2023-04-15T04:59:43;8.71;69.61
71175;DHT22;58876;51.994;4.472;2023-04-15T05:02:08;8.69;69.83
71175;DHT22;58876;51.994;4.472;2023-04-15T05:04:33;8.69;69.51
71175;DHT22;58876;51.994;4.472;2023-04-15T05:06:59;8.75;69.56
71175;DHT22;58876;51.994;4.472;2023-04-15T05:09:25;8.68;69.83
71175;DHT22;58876;51.994;4.472;2023-04-15T05:11:50;8.76;69.59
71175;DHT22;58876;51.994;4.472;2023-04-15T05:14:16;8.73;69.66
71175;DHT22;58876;51.994;4.472;2023-04-15T05:16:41;8.72;69.77
71175;DHT22;58876;51.994;4.472;2023-04-15T05:19:06;8.72;69.76
71175;DHT22;58876;51.994;4.472;2023-04-15T05:21:32;8.73;70.19
71175;DHT22;58876;51.994;4.472;2023-04-15T05:23:57;8.79;69.94
71175;DHT22;58876;51.994;4.472;2023-04-15T05:26:23;8.79;70.06
71175;DHT22;58876;51.994;4.472;2023-04-15T05:28:49;8.83;69.63
71175;DHT22;58876;51.994;4.472;2023-04-15T05:31:14;8.80;69.81
71175;DHT22;58876;51.994;4.472;2023-04-15T05:33:40;8.82;69.95
71175;DHT22;58876;51.994;4.472;2023-04-15T05:36:06;8.85;70.07
71175;DHT22;58876;51.994;4.472;2023-04-15T05:38:31;8.96;69.86
71175;DHT22;58876;51.994;4.472;2023-04-15T05:40:57;8.97;69.72
71175;DHT22;58876;51.994;4.472;2023-04-15T05:43:23;9.03;69.70
71175;DHT22;58876;51.994;4.472;2023-04-15T05:45:48;9.03;69.92
71175;DHT22;58876;51.994;4.472;2023-04-15T05:48:14;9.00;70.44
71175;DHT22;58876;51.994;4.472;2023-04-15T05:50:42;9.06;70.20
71175;DHT22;58876;51.994;4.472;2023-04-15T05:53:08;9.04;70.63
71175;DHT22;58876;51.994;4.472;2023-04-15T05:55:34;9.10;70.28
71175;DHT22;58876;51.994;4.472;2023-04-15T05:57:59;9.16;69.80
71175;DHT22;58876;51.994;4.472;2023-04-15T06:00:25;9.23;69.75
71175;DHT22;58876;51.994;4.472;2023-04-15T06:02:50;9.23;70.04
71175;DHT22;58876;51.994;4.472;2023-04-15T06:05:16;9.24;70.03
71175;DHT22;58876;51.994;4.472;2023-04-15T06:07:42;9.33;70.19
71175;DHT22;58876;51.994;4.472;2023-04-15T06:10:08;9.34;70.09
71175;DHT22;58876;51.994;4.472;2023-04-15T06:12:34;9.40;70.32
71175;DHT22;58876;51.994;4.472;2023-04-15T06:15:00;9.43;70.30
71175;DHT22;58876;51.994;4.472;2023-04-15T06:17:25;9.50;70.14
71175;DHT22;58876;51.994;4.472;2023-04-15T06:19:51;9.58;70.12
71175;DHT22;58876;51.994;4.472;2023-04-15T06:22:23;9.59;70.36
71175;DHT22;58876;51.994;4.472;2023-04-15T06:24:48;9.65;70.13
71175;DHT22;58876;51.994;4.472;2023-04-15T06:27:17;9.70;70.03
71175;DHT22;58876;51.994;4.472;2023-04-15T06:29:43;9.77;69.94
71175;DHT22;58876;51.994;4.472;2023-04-15T06:32:09;9.88;69.33
71175;DHT22;58876;51.994;4.472;2023-04-15T06:34:35;9.92;69.27
71175;DHT22;58876;51.994;4.472;2023-04-15T06:37:00;10.01;68.69
71175;DHT22;58876;51.994;4.472;2023-04-15T06:39:26;10.29;68.30
71175;DHT22;58876;51.994;4.472;2023-04-15T06:41:52;10.57;67.56
71175;DHT22;58876;51.994;4.472;2023-04-15T06:44:17;10.82;67.19
71175;DHT22;58876;51.994;4.472;2023-04-15T06:46:43;11.19;66.04
71175;DHT22;58876;51.994;4.472;2023-04-15T06:49:09;11.63;64.96
71175;DHT22;58876;51.994;4.472;2023-04-15T06:51:35;11.91;63.81
71175;DHT22;58876;51.994;4.472;2023-04-15T06:54:01;12.13;63.39
71175;DHT22;58876;51.994;4.472;2023-04-15T06:56:30;12.14;63.08
71175;DHT22;58876;51.994;4.472;2023-04-15T06:58:56;12.17;63.36
71175;DHT22;58876;51.994;4.472;2023-04-15T07:01:21;12.08;63.82
71175;DHT22;58876;51.994;4.472;2023-04-15T07:03:48;12.50;63.27
71175;DHT22;58876;51.994;4.472;2023-04-15T07:06:13;13.02;61.78
71175;DHT22;58876;51.994;4.472;2023-04-15T07:08:39;13.53;60.56
71175;DHT22;58876;51.994;4.472;2023-04-15T07:11:05;14.13;58.68
71175;DHT22;58876;51.994;4.472;2023-04-15T07:13:31;14.74;56.06
71175;DHT22;58876;51.994;4.472;2023-04-15T07:15:57;15.71;53.82
71175;DHT22;58876;51.994;4.472;2023-04-15T07:18:22;16.61;51.53
71175;DHT22;58876;51.994;4.472;2023-04-15T07:20:48;17.03;50.00
71175;DHT22;58876;51.994;4.472;2023-04-15T07:23:13;17.24;49.80
71175;DHT22;58876;51.994;4.472;2023-04-15T07:25:39;17.61;48.61
71175;DHT22;58876;51.994;4.472;2023-04-15T07:28:04;17.26;48.62
71175;DHT22;58876;51.994;4.472;2023-04-15T07:30:29;16.49;51.22
71175;DHT22;58876;51.994;4.472;2023-04-15T07:32:55;15.73;53.52
71175;DHT22;58876;51.994;4.472;2023-04-15T07:35:20;15.22;55.36
71175;DHT22;58876;51.994;4.472;2023-04-15T07:37:47;15.35;55.59
71175;DHT22;58876;51.994;4.472;2023-04-15T07:40:12;15.57;55.46
71175;DHT22;58876;51.994;4.472;2023-04-15T07:42:39;15.94;53.71
71175;DHT22;58876;51.994;4.472;2023-04-15T07:45:04;16.26;52.10
71175;DHT22;58876;51.994;4.472;2023-04-15T07:47:30;16.58;51.69
71175;DHT22;58876;51.994;4.472;2023-04-15T07:49:56;16.94;50.70
71175;DHT22;58876;51.994;4.472;2023-04-15T07:52:22;17.88;48.66
71175;DHT22;58876;51.994;4.472;2023-04-15T07:54:47;18.63;46.87
71175;DHT22;58876;51.994;4.472;2023-04-15T07:57:12;18.99;46.42
71175;DHT22;58876;51.994;4.472;2023-04-15T07:59:38;19.50;45.32
71175;DHT22;58876;51.994;4.472;2023-04-15T08:02:03;19.14;45.34
71175;DHT22;58876;51.994;4.472;2023-04-15T08:04:29;19.01;45.67
71175;DHT22;58876;51.994;4.472;2023-04-15T08:06:55;18.34;47.12
71175;DHT22;58876;51.994;4.472;2023-04-15T08:09:20;18.59;47.29
71175;DHT22;58876;51.994;4.472;2023-04-15T08:11:48;18.99;46.43
71175;DHT22;58876;51.994;4.472;2023-04-15T08:14:14;19.25;45.68
71175;DHT22;58876;51.994;4.472;2023-04-15T08:16:39;19.02;45.93
71175;DHT22;58876;51.994;4.472;2023-04-15T08:19:05;19.20;46.12
71175;DHT22;58876;51.994;4.472;2023-04-15T08:21:31;18.75;46.77
71175;DHT22;58876;51.994;4.472;2023-04-15T08:23:56;18.92;45.70
71175;DHT22;58876;51.994;4.472;2023-04-15T08:26:22;18.95;46.33
71175;DHT22;58876;51.994;4.472;2023-04-15T08:28:48;18.94;45.85
71175;DHT22;58876;51.994;4.472;2023-04-15T08:31:14;18.84;46.23
71175;DHT22;58876;51.994;4.472;2023-04-15T08:33:40;18.70;46.73
71175;DHT22;58876;51.994;4.472;2023-04-15T08:36:06;19.19;46.40
71175;DHT22;58876;51.994;4.472;2023-04-15T08:38:32;19.60;46.13
71175;DHT22;58876;51.994;4.472;2023-04-15T08:41:06;19.87;45.00
71175;DHT22;58876;51.994;4.472;2023-04-15T08:43:45;19.98;43.94
71175;DHT22;58876;51.994;4.472;2023-04-15T08:46:14;19.46;44.72
71175;DHT22;58876;51.994;4.472;2023-04-15T08:48:41;19.32;45.03
71175;DHT22;58876;51.994;4.472;2023-04-15T08:51:07;19.26;44.76
71175;DHT22;58876;51.994;4.472;2023-04-15T08:53:33;19.12;44.73
71175;DHT22;58876;51.994;4.472;2023-04-15T08:56:03;18.51;46.28
71175;DHT22;58876;51.994;4.472;2023-04-15T08:58:32;18.43;47.24
71175;DHT22;58876;51.994;4.472;2023-04-15T09:00:57;17.67;47.86
71175;DHT22;58876;51.994;4.472;2023-04-15T09:03:23;18.05;47.60
71175;DHT22;58876;51.994;4.472;2023-04-15T09:05:49;18.19;47.11
71175;DHT22;58876;51.994;4.472;2023-04-15T09:08:18;17.96;46.92
71175;DHT22;58876;51.994;4.472;2023-04-15T09:10:43;17.68;48.07
71175;DHT22;58876;51.994;4.472;2023-04-15T09:13:09;17.68;48.08
71175;DHT22;58876;51.994;4.472;2023-04-15T09:15:37;17.38;48.42
71175;DHT22;58876;51.994;4.472;2023-04-15T09:18:03;17.37;49.17
71175;DHT22;58876;51.994;4.472;2023-04-15T09:20:29;17.51;48.83
71175;DHT22;58876;51.994;4.472;2023-04-15T09:22:54;17.55;49.21
71175;DHT22;58876;51.994;4.472;2023-04-15T09:27:50;17.04;48.63
71175;DHT22;58876;51.994;4.472;2023-04-15T09:30:16;17.02;49.62
71175;DHT22;58876;51.994;4.472;2023-04-15T09:35:19;17.11;47.92
71175;DHT22;58876;51.994;4.472;2023-04-15T09:37:46;16.80;48.59
71175;DHT22;58876;51.994;4.472;2023-04-15T09:40:11;16.80;47.21
71175;DHT22;58876;51.994;4.472;2023-04-15T09:42:55;16.99;47.33
71175;DHT22;58876;51.994;4.472;2023-04-15T09:45:22;16.83;48.63
71175;DHT22;58876;51.994;4.472;2023-04-15T09:47:48;16.65;45.55
71175;DHT22;58876;51.994;4.472;2023-04-15T09:50:17;16.15;47.36
71175;DHT22;58876;51.994;4.472;2023-04-15T09:52:43;16.42;49.12
71175;DHT22;58876;51.994;4.472;2023-04-15T09:55:09;16.36;47.26
71175;DHT22;58876;51.994;4.472;2023-04-15T09:57:36;16.22;48.41
71175;DHT22;58876;51.994;4.472;2023-04-15T10:00:07;16.35;47.20
71175;DHT22;58876;51.994;4.472;2023-04-15T10:02:33;16.56;46.17
71175;DHT22;58876;51.994;4.472;2023-04-15T10:05:00;16.45;47.15
71175;DHT22;58876;51.994;4.472;2023-04-15T10:07:26;16.58;45.52
71175;DHT22;58876;51.994;4.472;2023-04-15T10:09:52;16.83;46.36
71175;DHT22;58876;51.994;4.472;2023-04-15T10:12:18;17.07;46.99
71175;DHT22;58876;51.994;4.472;2023-04-15T10:14:49;16.92;46.50
71175;DHT22;58876;51.994;4.472;2023-04-15T10:17:17;17.13;46.89
71175;DHT22;58876;51.994;4.472;2023-04-15T10:19:48;17.37;45.06
71175;DHT22;58876;51.994;4.472;2023-04-15T10:22:15;17.41;45.38
71175;DHT22;58876;51.994;4.472;2023-04-15T10:24:41;17.38;45.34
71175;DHT22;58876;51.994;4.472;2023-04-15T10:27:09;17.30;44.61
71175;DHT22;58876;51.994;4.472;2023-04-15T10:29:36;17.42;44.12
71175;DHT22;58876;51.994;4.472;2023-04-15T10:32:02;17.34;45.48
71175;DHT22;58876;51.994;4.472;2023-04-15T10:34:30;17.37;45.78
71175;DHT22;58876;51.994;4.472;2023-04-15T10:37:01;17.26;46.86
71175;DHT22;58876;51.994;4.472;2023-04-15T10:42:10;17.17;44.55
71175;DHT22;58876;51.994;4.472;2023-04-15T10:44:37;16.82;45.16
71175;DHT22;58876;51.994;4.472;2023-04-15T10:47:12;17.10;46.03
71175;DHT22;58876;51.994;4.472;2023-04-15T10:49:58;17.61;46.57
71175;DHT22;58876;51.994;4.472;2023-04-15T10:52:26;17.72;45.25
71175;DHT22;58876;51.994;4.472;2023-04-15T10:57:37;17.44;45.10
71175;DHT22;58876;51.994;4.472;2023-04-15T11:02:53;17.04;45.88
71175;DHT22;58876;51.994;4.472;2023-04-15T11:05:22;17.54;46.42
71175;DHT22;58876;51.994;4.472;2023-04-15T11:07:49;17.93;46.09
71175;DHT22;58876;51.994;4.472;2023-04-15T11:12:52;18.26;45.87
71175;DHT22;58876;51.994;4.472;2023-04-15T11:15:33;18.32;43.78
71175;DHT22;58876;51.994;4.472;2023-04-15T11:18:19;18.56;46.11
71175;DHT22;58876;51.994;4.472;2023-04-15T11:23:13;18.40;43.81
71175;DHT22;58876;51.994;4.472;2023-04-15T11:25:39;18.41;44.65
71175;DHT22;58876;51.994;4.472;2023-04-15T11:28:05;18.56;44.52
71175;DHT22;58876;51.994;4.472;2023-04-15T11:30:32;18.16;45.93
71175;DHT22;58876;51.994;4.472;2023-04-15T11:33:03;18.60;45.60
71175;DHT22;58876;51.994;4.472;2023-04-15T11:35:30;18.61;43.27
71175;DHT22;58876;51.994;4.472;2023-04-15T11:37:55;18.50;44.57
71175;DHT22;58876;51.994;4.472;2023-04-15T11:40:23;18.56;44.65
71175;DHT22;58876;51.994;4.472;2023-04-15T11:43:04;18.32;43.24
71175;DHT22;58876;51.994;4.472;2023-04-15T11:45:30;18.90;42.96
71175;DHT22;58876;51.994;4.472;2023-04-15T11:48:10;18.91;41.31
71175;DHT22;58876;51.994;4.472;2023-04-15T11:50:37;19.32;41.99
71175;DHT22;58876;51.994;4.472;2023-04-15T11:53:06;19.39;42.67
71175;DHT22;58876;51.994;4.472;2023-04-15T11:55:47;19.42;41.27
71175;DHT22;58876;51.994;4.472;2023-04-15T11:58:33;19.12;43.03
71175;DHT22;58876;51.994;4.472;2023-04-15T12:01:00;18.83;44.29
71175;DHT22;58876;51.994;4.472;2023-04-15T12:03:34;19.18;45.08
71175;DHT22;58876;51.994;4.472;2023-04-15T12:06:20;19.28;43.08
71175;DHT22;58876;51.994;4.472;2023-04-15T12:11:13;18.37;44.63
71175;DHT22;58876;51.994;4.472;2023-04-15T12:13:43;18.33;44.34
71175;DHT22;58876;51.994;4.472;2023-04-15T12:16:08;18.51;43.79
71175;DHT22;58876;51.994;4.472;2023-04-15T12:18:37;18.61;44.67
71175;DHT22;58876;51.994;4.472;2023-04-15T12:21:09;18.90;44.85
71175;DHT22;58876;51.994;4.472;2023-04-15T12:23:50;18.68;44.60
71175;DHT22;58876;51.994;4.472;2023-04-15T12:26:16;18.20;44.50
71175;DHT22;58876;51.994;4.472;2023-04-15T12:28:42;18.02;44.75
71175;DHT22;58876;51.994;4.472;2023-04-15T12:31:09;18.29;45.07
71175;DHT22;58876;51.994;4.472;2023-04-15T12:33:35;17.77;47.93
71175;DHT22;58876;51.994;4.472;2023-04-15T12:36:02;18.03;47.03
71175;DHT22;58876;51.994;4.472;2023-04-15T12:38:28;17.07;48.54
71175;DHT22;58876;51.994;4.472;2023-04-15T12:40:53;16.94;50.07
71175;DHT22;58876;51.994;4.472;2023-04-15T12:43:19;16.51;51.52
71175;DHT22;58876;51.994;4.472;2023-04-15T12:45:44;15.90;53.12
71175;DHT22;58876;51.994;4.472;2023-04-15T12:48:10;16.34;53.17
71175;DHT22;58876;51.994;4.472;2023-04-15T12:50:35;16.56;53.62
71175;DHT22;58876;51.994;4.472;2023-04-15T12:53:02;16.48;54.17
71175;DHT22;58876;51.994;4.472;2023-04-15T12:55:28;15.77;55.30
71175;DHT22;58876;51.994;4.472;2023-04-15T12:57:55;15.91;54.51
71175;DHT22;58876;51.994;4.472;2023-04-15T13:00:21;16.49;53.80
71175;DHT22;58876;51.994;4.472;2023-04-15T13:02:47;16.14;54.60
71175;DHT22;58876;51.994;4.472;2023-04-15T13:05:13;15.86;55.65
71175;DHT22;58876;51.994;4.472;2023-04-15T13:07:40;16.36;53.98
71175;DHT22;58876;51.994;4.472;2023-04-15T13:10:06;16.61;52.88
71175;DHT22;58876;51.994;4.472;2023-04-15T13:12:32;16.77;52.92
71175;DHT22;58876;51.994;4.472;2023-04-15T13:15:02;16.10;53.82
71175;DHT22;58876;51.994;4.472;2023-04-15T13:17:28;15.47;54.85
71175;DHT22;58876;51.994;4.472;2023-04-15T13:19:53;15.70;54.27
71175;DHT22;58876;51.994;4.472;2023-04-15T13:22:19;15.79;54.53
71175;DHT22;58876;51.994;4.472;2023-04-15T13:24:44;15.66;55.26
71175;DHT22;58876;51.994;4.472;2023-04-15T13:27:10;15.67;55.75
71175;DHT22;58876;51.994;4.472;2023-04-15T13:29:35;15.60;56.01
71175;DHT22;58876;51.994;4.472;2023-04-15T13:32:02;15.87;55.20
71175;DHT22;58876;51.994;4.472;2023-04-15T13:34:27;15.84;55.67
71175;DHT22;58876;51.994;4.472;2023-04-15T13:36:52;15.60;56.01
71175;DHT22;58876;51.994;4.472;2023-04-15T13:39:18;15.64;55.70
71175;DHT22;58876;51.994;4.472;2023-04-15T13:41:43;15.55;55.52
71175;DHT22;58876;51.994;4.472;2023-04-15T13:44:09;15.35;55.78
71175;DHT22;58876;51.994;4.472;2023-04-15T13:46:36;15.73;55.40
71175;DHT22;58876;51.994;4.472;2023-04-15T13:49:03;15.57;55.81
71175;DHT22;58876;51.994;4.472;2023-04-15T13:51:29;15.59;53.89
71175;DHT22;58876;51.994;4.472;2023-04-15T13:53:55;15.53;54.61
71175;DHT22;58876;51.994;4.472;2023-04-15T13:56:22;15.96;54.75
71175;DHT22;58876;51.994;4.472;2023-04-15T13:58:48;15.94;54.38
71175;DHT22;58876;51.994;4.472;2023-04-15T14:01:13;15.86;54.92
71175;DHT22;58876;51.994;4.472;2023-04-15T14:03:39;15.71;54.19
71175;DHT22;58876;51.994;4.472;2023-04-15T14:06:05;15.67;53.67
71175;DHT22;58876;51.994;4.472;2023-04-15T14:08:30;15.66;55.00
71175;DHT22;58876;51.994;4.472;2023-04-15T14:10:56;16.24;54.49
71175;DHT22;58876;51.994;4.472;2023-04-15T14:13:21;16.31;53.54
71175;DHT22;58876;51.994;4.472;2023-04-15T14:15:47;16.36;53.34
71175;DHT22;58876;51.994;4.472;2023-04-15T14:18:13;16.04;54.30
71175;DHT22;58876;51.994;4.472;2023-04-15T14:20:38;15.71;54.04
71175;DHT22;58876;51.994;4.472;2023-04-15T14:23:03;15.52;55.45
71175;DHT22;58876;51.994;4.472;2023-04-15T14:25:29;15.98;54.76
71175;DHT22;58876;51.994;4.472;2023-04-15T14:27:54;16.51;52.34
71175;DHT22;58876;51.994;4.472;2023-04-15T14:30:20;16.69;52.44
71175;DHT22;58876;51.994;4.472;2023-04-15T14:32:45;16.89;52.74
71175;DHT22;58876;51.994;4.472;2023-04-15T14:35:11;16.55;53.22
71175;DHT22;58876;51.994;4.472;2023-04-15T14:37:36;16.53;54.11
71175;DHT22;58876;51.994;4.472;2023-04-15T14:40:02;16.53;53.51
71175;DHT22;58876;51.994;4.472;2023-04-15T14:42:28;16.40;54.39
71175;DHT22;58876;51.994;4.472;2023-04-15T14:44:53;16.08;55.79
71175;DHT22;58876;51.994;4.472;2023-04-15T14:47:18;16.40;53.45
71175;DHT22;58876;51.994;4.472;2023-04-15T14:49:44;15.97;55.07
71175;DHT22;58876;51.994;4.472;2023-04-15T14:52:10;15.87;55.57
71175;DHT22;58876;51.994;4.472;2023-04-15T14:54:35;15.31;57.51
71175;DHT22;58876;51.994;4.472;2023-04-15T14:57:00;15.45;57.61
71175;DHT22;58876;51.994;4.472;2023-04-15T14:59:26;15.31;58.18
71175;DHT22;58876;51.994;4.472;2023-04-15T15:01:51;15.04;58.43
71175;DHT22;58876;51.994;4.472;2023-04-15T15:04:17;14.98;58.91
71175;DHT22;58876;51.994;4.472;2023-04-15T15:06:43;14.84;58.91
71175;DHT22;58876;51.994;4.472;2023-04-15T15:09:08;14.94;59.33
71175;DHT22;58876;51.994;4.472;2023-04-15T15:11:34;15.49;57.88
71175;DHT22;58876;51.994;4.472;2023-04-15T15:13:59;15.16;58.43
71175;DHT22;58876;51.994;4.472;2023-04-15T15:16:25;14.83;59.11
71175;DHT22;58876;51.994;4.472;2023-04-15T15:18:51;14.87;58.91
71175;DHT22;58876;51.994;4.472;2023-04-15T15:21:17;15.24;58.56
71175;DHT22;58876;51.994;4.472;2023-04-15T15:23:43;15.49;57.60
71175;DHT22;58876;51.994;4.472;2023-04-15T15:26:09;15.14;57.83
71175;DHT22;58876;51.994;4.472;2023-04-15T15:28:34;14.98;59.34
71175;DHT22;58876;51.994;4.472;2023-04-15T15:30:59;14.38;60.15
71175;DHT22;58876;51.994;4.472;2023-04-15T15:33:25;14.23;61.18
71175;DHT22;58876;51.994;4.472;2023-04-15T15:35:50;14.23;60.66
71175;DHT22;58876;51.994;4.472;2023-04-15T15:38:16;14.48;60.14
71175;DHT22;58876;51.994;4.472;2023-04-15T15:40:41;14.54;59.50
71175;DHT22;58876;51.994;4.472;2023-04-15T15:43:07;14.34;59.56
71175;DHT22;58876;51.994;4.472;2023-04-15T15:45:33;14.59;58.84
71175;DHT22;58876;51.994;4.472;2023-04-15T15:48:00;14.59;58.35
71175;DHT22;58876;51.994;4.472;2023-04-15T15:50:26;14.17;59.25